Prevelis — SYDL — position and weather

sailwx.info

Track history (hours):
 
Tides and Currents Weather Stations Pressure Air Temp Water Temp Dewpoint Dewpoint Depression Visibility Wind Speed Wind Dir Waves Ship Positions

Prevelis

Last reported at 2014-Jul-31 23:33 UTC. Time now 2014-Jul-31 23:52 UTC.
Position N 36°43' E 024°54'.

Length 143 m; draft 5.5 m.

Type: Passenger vessel. MMSI: 239297000.

Date/timePositionNaut miles runAvg speedWind from/ knotsBaromVisibWave heightAir tempDewpointWater temp
2014-Jul-31 23:33N 36°43' E 024°54'1716.8
2014-Jul-31 22:33N 36°33' E 025°10'1515.5
2014-Jul-31 21:33N 36°23' E 025°26'5 5.0
2014-Jul-31 20:33N 36°21' E 025°20'1716.7
2014-Jul-31 19:33N 36°20' E 025°41'4 4.1
2014-Jul-31 18:32N 36°21' E 025°46'1616.2
2014-Jul-31 17:33N 36°07' E 025°56'1917.8
2014-Jul-31 16:29N 35°55' E 026°15'1718.4
2014-Jul-31 15:33N 35°45' E 026°32'1918.6
2014-Jul-31 14:32N 35°33' E 026°49'10 9.3
2014-Jul-31 13:31N 35°26' E 026°58'27 7.8
2014-Jul-31 10:04N 35°48' E 027°17'917.7
2014-Jul-31 09:33N 35°56' E 027°22'3515.1
2014-Jul-31 07:14N 36°21' E 027°53'16 1.5
2014-Jul-30 20:28N 36°11' E 027°37'1818.5
2014-Jul-30 19:28N 35°56' E 027°24'1712.2
2014-Jul-30 18:03N 35°41' E 027°15'15 8.2
2014-Jul-30 16:12N 35°25' E 027°12'1014.9
2014-Jul-30 15:32N 35°27' E 027°00'8 7.5
2014-Jul-30 14:32N 35°24' E 026°52'1818.4
2014-Jul-30 13:32N 35°21' E 026°29'3913.0
2014-Jul-30 10:33N 35°22' E 025°42'1818.5
2014-Jul-30 09:33N 35°22' E 025°19'9 7.6
2014-Jul-30 08:24N 35°21' E 025°09'0 0.0
2014-Jul-30 07:29N 35°21' E 025°09'1313.1
2014-Jul-30 06:30N 35°22' E 025°24'117 6.4
2014-Jul-29 12:17N 36°09' E 027°37'5210.1
2014-Jul-29 07:10N 35°26' E 026°59'9 9.0
2014-Jul-29 06:09N 35°31' E 026°50'1118.2
2014-Jul-29 05:33N 35°38' E 026°40'2018.3
2014-Jul-29 04:26N 35°52' E 026°21'1718.4
2014-Jul-29 03:32N 36°03' E 026°06'1818.2
2014-Jul-29 02:33N 36°15' E 025°49'8 8.2
2014-Jul-29 01:33N 36°21' E 025°42'1717.3
2014-Jul-29 00:33N 36°20' E 025°21'5 4.8
2014-Jul-28 23:33N 36°23' E 025°26'5 4.8
2014-Jul-28 22:33N 36°22' E 025°20'1817.7
2014-Jul-28 21:33N 36°34' E 025°03'1817.9
2014-Jul-28 20:33N 36°47' E 024°48'1817.7
2014-Jul-28 19:33N 36°58' E 024°31'1817.5
2014-Jul-28 18:31N 37°12' E 024°16'1917.5
2014-Jul-28 17:25N 37°27' E 024°01'1517.6
2014-Jul-28 16:33N 37°37' E 023°46'1716.9
2014-Jul-28 15:33N 37°52' E 023°37'5 4.8
2014-Jul-28 14:33N 37°57' E 023°38'0 0.0
2014-Jul-28 13:33N 37°57' E 023°38'0 0.0
2014-Jul-28 12:33N 37°57' E 023°38'0 0.0
2014-Jul-28 11:33N 37°57' E 023°38'0 0.0
2014-Jul-28 10:33N 37°57' E 023°38'0 0.0
2014-Jul-28 09:33N 37°57' E 023°38'0 0.0
2014-Jul-28 08:33N 37°57' E 023°38'0 0.0
2014-Jul-28 07:33N 37°57' E 023°38'4 4.3
2014-Jul-28 06:33N 37°53' E 023°38'1818.1
2014-Jul-28 05:33N 37°36' E 023°48'1818.1
2014-Jul-28 04:33N 37°20' E 023°59'2017.9
2014-Jul-28 03:26N 37°03' E 024°11'1618.0
2014-Jul-28 02:33N 36°49' E 024°21'7 7.4
2014-Jul-28 01:33N 36°43' E 024°27'9 9.1
2014-Jul-28 00:33N 36°43' E 024°38'1817.9
2014-Jul-27 23:33N 36°34' E 024°58'1818.1
2014-Jul-27 22:33N 36°29' E 025°19'8 7.5
2014-Jul-27 21:32N 36°23' E 025°26'5 4.9
2014-Jul-27 20:33N 36°21' E 025°21'1817.5
2014-Jul-27 19:31N 36°20' E 025°43'7 7.1
2014-Jul-27 18:33N 36°13' E 025°42'1818.4
2014-Jul-27 17:33N 35°57' E 025°33'1818.5
2014-Jul-27 16:33N 35°40' E 025°23'46 7.6
2014-Jul-27 10:28N 35°20' E 026°14'72 4.8
2014-Jul-26 19:33N 36°01' E 027°27'11210.7
2014-Jul-26 09:06N 35°22' E 025°18'7 4.7
2014-Jul-26 07:32N 35°21' E 025°09'3517.6
2014-Jul-26 05:33N 35°52' E 025°30'1818.4
2014-Jul-26 04:33N 36°08' E 025°39'1310.6
2014-Jul-26 03:17N 36°21' E 025°45'1418.1
2014-Jul-26 02:31N 36°19' E 025°27'5 3.5
2014-Jul-26 01:13N 36°23' E 025°26'0 0.0
2014-Jul-26 00:29N 36°23' E 025°26'1415.1
2014-Jul-25 23:33N 36°26' E 025°09'2017.6
2014-Jul-25 22:26N 36°37' E 024°48'1817.7
2014-Jul-25 21:24N 36°47' E 024°29'5 5.4
2014-Jul-25 20:33N 36°43' E 024°27'8 8.4
2014-Jul-25 19:33N 36°49' E 024°19'1817.9
2014-Jul-25 18:33N 37°05' E 024°08'4117.9
2014-Jul-25 16:16N 37°40' E 023°43'1217.2
2014-Jul-25 15:33N 37°52' E 023°37'5 5.4
2014-Jul-25 14:33N 37°57' E 023°38'0 0.0
2014-Jul-25 13:33N 37°57' E 023°38'0 0.0
2014-Jul-25 12:33N 37°57' E 023°38'0 0.0
2014-Jul-25 11:33N 37°57' E 023°38'0 0.0
2014-Jul-25 10:33N 37°57' E 023°38'0 0.0
2014-Jul-25 09:33N 37°57' E 023°38'0 0.0
2014-Jul-25 08:33N 37°57' E 023°38'0 0.0
2014-Jul-25 07:33N 37°57' E 023°38'0 0.0
2014-Jul-25 06:33N 37°57' E 023°38'0 0.0
2014-Jul-25 05:33N 37°57' E 023°38'6 6.0
2014-Jul-25 04:33N 37°51' E 023°39'7218.0
2014-Jul-25 00:33N 36°54' E 024°34'1818.4
2014-Jul-24 23:33N 36°39' E 024°48'1818.3
2014-Jul-24 22:33N 36°29' E 025°07'1615.9
2014-Jul-24 21:34N 36°23' E 025°25'4 3.9
2014-Jul-24 20:32N 36°22' E 025°21'1616.5
2014-Jul-24 19:34N 36°20' E 025°41'2 1.6
2014-Jul-24 18:33N 36°20' E 025°43'1918.6
2014-Jul-24 17:34N 36°06' E 025°59'79 3.7
2014-Jul-23 20:21N 36°11' E 027°36'1518.8
2014-Jul-23 19:33N 35°59' E 027°25'6510.2
2014-Jul-23 13:13N 35°21' E 026°20'3212.1
2014-Jul-23 10:32N 35°22' E 025°41'26 8.2
2014-Jul-23 07:20N 35°21' E 025°09'1215.1
2014-Jul-23 06:33N 35°22' E 025°23'1918.6
2014-Jul-23 05:33N 35°22' E 025°46'2411.9
2014-Jul-23 03:33N 35°20' E 026°15'8810.9
2014-Jul-22 19:25N 36°14' E 027°41'5 0.6
2014-Jul-22 12:19N 36°11' E 027°37'81 8.2
2014-Jul-22 02:24N 36°09' E 025°57'1612.5
2014-Jul-22 01:08N 36°21' E 025°43'1418.4
2014-Jul-22 00:24N 36°19' E 025°26'  
Track history (hours):
 
Tides and Currents Weather Stations Pressure Air Temp Water Temp Dewpoint Dewpoint Depression Visibility Wind Speed Wind Dir Waves Ship Positions

Prevelis

Last reported at 2014-Jul-31 23:33 UTC. Time now 2014-Jul-31 23:52 UTC.
Position N 36°43' E 024°54'.

Length 143 m; draft 5.5 m.

Type: Passenger vessel. MMSI: 239297000.

Date/timePositionNaut miles runAvg speedWind from/ knotsBaromVisibWave heightAir tempDewpointWater temp
2014-Jul-31 23:33N 36°43' E 024°54'1716.8
2014-Jul-31 22:33N 36°33' E 025°10'1515.5
2014-Jul-31 21:33N 36°23' E 025°26'5 5.0
2014-Jul-31 20:33N 36°21' E 025°20'1716.7
2014-Jul-31 19:33N 36°20' E 025°41'4 4.1
2014-Jul-31 18:32N 36°21' E 025°46'1616.2
2014-Jul-31 17:33N 36°07' E 025°56'1917.8
2014-Jul-31 16:29N 35°55' E 026°15'1718.4
2014-Jul-31 15:33N 35°45' E 026°32'1918.6
2014-Jul-31 14:32N 35°33' E 026°49'10 9.3
2014-Jul-31 13:31N 35°26' E 026°58'27 7.8
2014-Jul-31 10:04N 35°48' E 027°17'917.7
2014-Jul-31 09:33N 35°56' E 027°22'3515.1
2014-Jul-31 07:14N 36°21' E 027°53'16 1.5
2014-Jul-30 20:28N 36°11' E 027°37'1818.5
2014-Jul-30 19:28N 35°56' E 027°24'1712.2
2014-Jul-30 18:03N 35°41' E 027°15'15 8.2
2014-Jul-30 16:12N 35°25' E 027°12'1014.9
2014-Jul-30 15:32N 35°27' E 027°00'8 7.5
2014-Jul-30 14:32N 35°24' E 026°52'1818.4
2014-Jul-30 13:32N 35°21' E 026°29'3913.0
2014-Jul-30 10:33N 35°22' E 025°42'1818.5
2014-Jul-30 09:33N 35°22' E 025°19'9 7.6
2014-Jul-30 08:24N 35°21' E 025°09'0 0.0
2014-Jul-30 07:29N 35°21' E 025°09'1313.1
2014-Jul-30 06:30N 35°22' E 025°24'117 6.4
2014-Jul-29 12:17N 36°09' E 027°37'5210.1
2014-Jul-29 07:10N 35°26' E 026°59'9 9.0
2014-Jul-29 06:09N 35°31' E 026°50'1118.2
2014-Jul-29 05:33N 35°38' E 026°40'2018.3
2014-Jul-29 04:26N 35°52' E 026°21'1718.4
2014-Jul-29 03:32N 36°03' E 026°06'1818.2
2014-Jul-29 02:33N 36°15' E 025°49'8 8.2
2014-Jul-29 01:33N 36°21' E 025°42'1717.3
2014-Jul-29 00:33N 36°20' E 025°21'5 4.8
2014-Jul-28 23:33N 36°23' E 025°26'5 4.8
2014-Jul-28 22:33N 36°22' E 025°20'1817.7
2014-Jul-28 21:33N 36°34' E 025°03'1817.9
2014-Jul-28 20:33N 36°47' E 024°48'1817.7
2014-Jul-28 19:33N 36°58' E 024°31'1817.5
2014-Jul-28 18:31N 37°12' E 024°16'1917.5
2014-Jul-28 17:25N 37°27' E 024°01'1517.6
2014-Jul-28 16:33N 37°37' E 023°46'1716.9
2014-Jul-28 15:33N 37°52' E 023°37'5 4.8
2014-Jul-28 14:33N 37°57' E 023°38'0 0.0
2014-Jul-28 13:33N 37°57' E 023°38'0 0.0
2014-Jul-28 12:33N 37°57' E 023°38'0 0.0
2014-Jul-28 11:33N 37°57' E 023°38'0 0.0
2014-Jul-28 10:33N 37°57' E 023°38'0 0.0
2014-Jul-28 09:33N 37°57' E 023°38'0 0.0
2014-Jul-28 08:33N 37°57' E 023°38'0 0.0
2014-Jul-28 07:33N 37°57' E 023°38'4 4.3
2014-Jul-28 06:33N 37°53' E 023°38'1818.1
2014-Jul-28 05:33N 37°36' E 023°48'1818.1
2014-Jul-28 04:33N 37°20' E 023°59'2017.9
2014-Jul-28 03:26N 37°03' E 024°11'1618.0
2014-Jul-28 02:33N 36°49' E 024°21'7 7.4
2014-Jul-28 01:33N 36°43' E 024°27'9 9.1
2014-Jul-28 00:33N 36°43' E 024°38'1817.9
2014-Jul-27 23:33N 36°34' E 024°58'1818.1
2014-Jul-27 22:33N 36°29' E 025°19'8 7.5
2014-Jul-27 21:32N 36°23' E 025°26'5 4.9
2014-Jul-27 20:33N 36°21' E 025°21'1817.5
2014-Jul-27 19:31N 36°20' E 025°43'7 7.1
2014-Jul-27 18:33N 36°13' E 025°42'1818.4
2014-Jul-27 17:33N 35°57' E 025°33'1818.5
2014-Jul-27 16:33N 35°40' E 025°23'46 7.6
2014-Jul-27 10:28N 35°20' E 026°14'72 4.8
2014-Jul-26 19:33N 36°01' E 027°27'11210.7
2014-Jul-26 09:06N 35°22' E 025°18'7 4.7
2014-Jul-26 07:32N 35°21' E 025°09'3517.6
2014-Jul-26 05:33N 35°52' E 025°30'1818.4
2014-Jul-26 04:33N 36°08' E 025°39'1310.6
2014-Jul-26 03:17N 36°21' E 025°45'1418.1
2014-Jul-26 02:31N 36°19' E 025°27'5 3.5
2014-Jul-26 01:13N 36°23' E 025°26'0 0.0
2014-Jul-26 00:29N 36°23' E 025°26'1415.1
2014-Jul-25 23:33N 36°26' E 025°09'2017.6
2014-Jul-25 22:26N 36°37' E 024°48'1817.7
2014-Jul-25 21:24N 36°47' E 024°29'5 5.4
2014-Jul-25 20:33N 36°43' E 024°27'8 8.4
2014-Jul-25 19:33N 36°49' E 024°19'1817.9
2014-Jul-25 18:33N 37°05' E 024°08'4117.9
2014-Jul-25 16:16N 37°40' E 023°43'1217.2
2014-Jul-25 15:33N 37°52' E 023°37'5 5.4
2014-Jul-25 14:33N 37°57' E 023°38'0 0.0
2014-Jul-25 13:33N 37°57' E 023°38'0 0.0
2014-Jul-25 12:33N 37°57' E 023°38'0 0.0
2014-Jul-25 11:33N 37°57' E 023°38'0 0.0
2014-Jul-25 10:33N 37°57' E 023°38'0 0.0
2014-Jul-25 09:33N 37°57' E 023°38'0 0.0
2014-Jul-25 08:33N 37°57' E 023°38'0 0.0
2014-Jul-25 07:33N 37°57' E 023°38'0 0.0
2014-Jul-25 06:33N 37°57' E 023°38'0 0.0
2014-Jul-25 05:33N 37°57' E 023°38'6 6.0
2014-Jul-25 04:33N 37°51' E 023°39'7218.0
2014-Jul-25 00:33N 36°54' E 024°34'1818.4
2014-Jul-24 23:33N 36°39' E 024°48'1818.3
2014-Jul-24 22:33N 36°29' E 025°07'1615.9
2014-Jul-24 21:34N 36°23' E 025°25'4 3.9
2014-Jul-24 20:32N 36°22' E 025°21'1616.5
2014-Jul-24 19:34N 36°20' E 025°41'2 1.6
2014-Jul-24 18:33N 36°20' E 025°43'1918.6
2014-Jul-24 17:34N 36°06' E 025°59'79 3.7
2014-Jul-23 20:21N 36°11' E 027°36'1518.8
2014-Jul-23 19:33N 35°59' E 027°25'6510.2
2014-Jul-23 13:13N 35°21' E 026°20'3212.1
2014-Jul-23 10:32N 35°22' E 025°41'26 8.2
2014-Jul-23 07:20N 35°21' E 025°09'1215.1
2014-Jul-23 06:33N 35°22' E 025°23'1918.6
2014-Jul-23 05:33N 35°22' E 025°46'2411.9
2014-Jul-23 03:33N 35°20' E 026°15'8810.9
2014-Jul-22 19:25N 36°14' E 027°41'5 0.6
2014-Jul-22 12:19N 36°11' E 027°37'81 8.2
2014-Jul-22 02:24N 36°09' E 025°57'1612.5
2014-Jul-22 01:08N 36°21' E 025°43'1418.4
2014-Jul-22 00:24N 36°19' E 025°26'  

Dump ship's entire track history